Historyczne dane pomiarowe

Dodano dane terminowe – wersja testowa.

Dane z okresu 1951-2019

Wersja bazy: 1.34 [2019-03-16, lista zmian], aktualizacja planowana na 2019-04-15

Dane meteo z obszaru Polski uzyskane na podstawie danych udostępnionych przez Instytut Meteorologii i Gospodarki Wodnej – Państwowy Instytut Badawczy.

 

Wybierz Datę:    

       

TemperaturaWilgotnośćWiatrCiśnienieOpadyŚniegCzas trwania zjawisk
 Stacja t tx tn tng RH VA  wxwx mslp ppp RRR   cm mm wxwxwxwxwxwxwx
1956-11-09 -5.4 -3.3 -9.5-12.3 74.8- 5.0 2.0---- 0.0------------
1956-11-08 -5.2 -1.8 -6.8 -8.5 78.3- 0.3 3.7---- 0.0------------
1956-11-07 -2.0 1.0 -4.2 -4.0 80.0- 4.0 7.0---- 0.0------------
1956-11-06 0.4 3.7 -0.3 -2.1 82.5- 3.3 6.0---- 0.1------------
1956-11-05 0.4 3.7 -6.2 -9.4 93.8- 5.3 4.0---- 0.0-- 2---------
1956-11-04 -2.9 4.6 -6.0-11.2 82.0- 2.3 1.3---- 0.0-- 3---------
1956-11-03 -1.4 1.3 -6.6-13.3 94.8- 8.0 2.3---- 0.0-- 4---------
1956-11-02 -3.1 2.8 -6.5 -8.6 92.3- 1.3 1.7---- 0.0-- 5---------
1956-11-01 -1.6 0.5 -5.2 -7.6 87.0- 8.0 5.3---- 3.5------------
1956-10-31 -5.6 -2.8 -8.3 -9.5 78.5- 1.3 3.0---- 0.0------------
1956-10-30 -2.1 5.1 -3.3 -1.1 86.0- 8.0 5.0---- 0.4------------
1956-10-29 6.1 9.5 4.7 0.5 87.8- 5.3 2.3---- 1.2------------
1956-10-28 8.3 10.1 7.7 7.2 95.0- 8.0 4.0---- 16.9------------
1956-10-27 7.5 9.3 3.8 3.4 97.5- 8.0 3.0---- 2.3------------
1956-10-26 7.2 14.2 2.9 -0.8 94.8- 1.7 1.3---- 0.0------------
1956-10-25 9.8 17.4 6.0 2.2 87.5- 0.3 2.7---- 0.0------------
1956-10-24 10.9 13.9 7.1 5.2 85.8- 7.7 2.0---- 0.0------------
1956-10-23 9.6 11.6 8.7 8.9 82.5- 8.0 4.0---- 0.0------------
1956-10-22 11.0 12.5 10.6 8.2 85.3- 7.0 4.7---- 0.0------------
1956-10-21 10.7 14.6 6.0 1.2 91.5- 6.0 1.3---- 0.0------------
1956-10-20 8.2 12.1 6.1 3.3 92.5- 7.0 2.0---- 0.0------------
1956-10-19 9.4 12.2 8.5 7.4 93.5- 8.0 2.0---- 1.8------------
1956-10-18 7.5 12.6 0.3 -4.3 85.5- 7.0 2.0---- 0.3------------
1956-10-17 3.6 11.7 -2.2 0.6 85.5- 2.3 0.7---- 0.0------------
1956-10-16 3.3 8.3 1.0 -1.2 89.0- 5.0 3.7---- 0.0------------
1956-10-15 5.8 10.6 2.9 -0.5 83.5- 3.0 5.0---- 0.0------------
1956-10-14 6.9 10.4 5.7 5.0 80.0- 4.3 8.0---- 0.7------------
1956-10-13 9.4 11.4 7.5 4.4 82.8- 8.0 7.0---- 13.2------------
1956-10-12 9.7 11.6 7.6 6.2 85.8- 7.3 4.0---- 0.0------------
1956-10-11 7.9 10.4 -0.1 -4.5 81.0- 8.0 3.7---- 2.0------------
1956-10-10 2.1 7.8 -0.3 -2.7 85.8- 2.0 3.0---- 0.0------------
1956-10-09 5.9 10.2 0.2 -2.9 87.3- 5.3 2.3---- 0.0------------
1956-10-08 5.6 9.6 4.3 1.8 87.8- 4.3 2.0---- 0.6------------
1956-10-07 5.8 11.1 2.4 1.7 92.3- 8.0 13.0---- 13.7------------
1956-10-06 10.0 11.9 7.7 3.4 97.3- 8.0 2.7---- 20.3------------
1956-10-05 9.7 13.5 7.7 4.3 93.8- 5.3 2.0---- 0.4------------
1956-10-04 8.3 13.6 5.1 2.1 95.5- 7.7 0.7---- 2.7------------
1956-10-03 15.8 21.3 12.7 10.4 77.5- 6.3 4.0---- 0.0------------
1956-10-02 17.1 25.9 9.6 5.1 78.0- 1.0 2.0---- 0.0------------
1956-10-01 12.3 20.4 4.3 -0.7 86.3- 2.7 1.7---- 0.0------------
1956-09-30 11.2 18.3 8.2 6.0 87.0- 3.7 2.0---- 0.0------------
1956-09-29 16.6 21.5 11.3 7.9 81.3- 4.3 3.0---- 0.4------------
1956-09-28 14.2 20.4 9.5 5.3 85.8- 4.3 1.7---- 0.0------------
1956-09-27 12.5 21.6 4.4 -1.6 74.8- 1.7 2.0---- 0.0------------
1956-09-26 11.2 20.3 3.2 -1.7 78.8- 0.0 1.0---- 0.0------------
1956-09-25 9.1 17.1 1.7 -2.2 72.8- 3.7 3.0---- 0.0------------
1956-09-24 6.5 12.8 1.2 -2.1 69.0- 1.3 3.0---- 0.0------------
1956-09-23 8.2 14.0 4.4 -0.6 72.8- 1.7 4.0---- 0.0------------
1956-09-22 11.1 18.6 3.3 -0.6 84.3- 5.3 1.0---- 0.0------------
1956-09-21 9.6 18.4 3.4 -0.2 83.5- 1.7 0.3---- 0.0------------
1956-09-20 9.2 16.0 3.2 -0.5 81.8- 6.3 2.0---- 0.0------------
1956-09-19 8.1 14.4 1.9 -1.4 88.3- 3.0 1.0---- 0.0------------
1956-09-18 6.9 12.2 4.8 3.6 89.3- 5.0 3.0---- 0.0------------
1956-09-17 6.9 12.8 6.2 1.8 88.0- 5.0 3.0---- 3.8------------
1956-09-16 9.5 12.5 4.4 0.0 79.5- 6.7 3.0---- 0.4------------
1956-09-15 9.1 14.2 3.0 -0.7 88.0- 3.7 3.3---- 0.0------------
1956-09-14 8.1 13.0 6.4 5.1 82.8- 4.0 4.0---- 0.0------------
1956-09-13 9.6 13.5 6.1 3.5 85.8- 7.0 4.3---- 0.1------------
1956-09-12 10.4 13.0 9.1 8.4 94.5- 8.0 5.0---- 23.9------------
1956-09-11 11.4 12.9 10.7 9.3 97.3- 8.0 3.0---- 12.0------------
2024.2 ms

 

Źródłem pochodzenia danych jest Instytut Meteorologii i Gospodarki Wodnej – Państwowy Instytut Badawczy. Dane Instytutu Meteorologii i Gospodarki Wodnej – Państwowego Instytutu Badawczego zostały przetworzone.

Dane źródłowe można odnaleźć na stronie https://dane.imgw.pl